createdAt,value
2022-10-28T00:00:51.601Z,1.29
2022-10-28T00:01:54.329Z,1.76
2022-10-28T00:02:57.732Z,1.70
2022-10-28T00:04:01.252Z,1.43
2022-10-28T00:05:04.429Z,1.43
2022-10-28T00:06:07.096Z,1.52
2022-10-28T00:07:09.967Z,2.19
2022-10-28T00:08:12.748Z,1.89
2022-10-28T00:09:15.416Z,1.78
2022-10-28T00:10:18.283Z,1.32
2022-10-28T00:11:21.056Z,1.21
2022-10-28T00:12:24.203Z,1.38
2022-10-28T00:13:27.314Z,1.55
2022-10-28T00:14:29.889Z,1.52
2022-10-28T00:15:32.869Z,1.48
2022-10-28T00:16:35.645Z,1.29
2022-10-28T00:17:38.727Z,1.42
2022-10-28T00:18:41.387Z,1.57
2022-10-28T00:19:44.359Z,1.64
2022-10-28T00:20:47.450Z,1.42
2022-10-28T00:21:50.430Z,1.38
2022-10-28T00:22:53.331Z,1.29
2022-10-28T00:23:56.272Z,1.73
2022-10-28T00:24:59.561Z,1.35
2022-10-28T00:26:02.849Z,1.23
2022-10-28T00:27:05.932Z,1.17
2022-10-28T00:28:08.793Z,1.40
2022-10-28T00:29:11.571Z,1.44
2022-10-28T00:30:14.341Z,1.41
2022-10-28T00:31:17.636Z,1.55
2022-10-28T00:32:22.141Z,1.45
2022-10-28T00:33:25.420Z,1.77
2022-10-28T00:34:28.292Z,1.66
2022-10-28T00:35:31.073Z,1.60
2022-10-28T00:36:34.052Z,1.22
2022-10-28T00:37:36.819Z,1.26
2022-10-28T00:38:39.689Z,1.35
2022-10-28T00:39:42.573Z,1.61
2022-10-28T00:40:45.247Z,1.45
2022-10-28T00:41:48.535Z,1.45
2022-10-28T00:42:51.577Z,1.48
2022-10-28T00:43:54.898Z,1.28
2022-10-28T00:44:57.672Z,1.22
2022-10-28T00:46:00.665Z,1.34
2022-10-28T00:47:04.250Z,1.69
2022-10-28T00:48:07.007Z,1.20
2022-10-28T00:49:09.669Z,1.36
2022-10-28T00:50:12.535Z,1.43
2022-10-28T00:51:15.515Z,1.45
2022-10-28T00:52:19.000Z,1.16
2022-10-28T00:53:21.988Z,1.15
2022-10-28T00:54:24.758Z,1.08
2022-10-28T00:55:27.846Z,1.47
2022-10-28T00:56:30.831Z,1.68
2022-10-28T00:57:34.099Z,1.69
2022-10-28T00:58:37.069Z,2.12
2022-10-28T00:59:40.365Z,1.42
2022-10-28T01:00:43.845Z,1.15
2022-10-28T01:01:47.538Z,1.41
2022-10-28T01:02:51.133Z,1.39
2022-10-28T01:03:54.209Z,1.26
2022-10-28T01:04:57.392Z,1.48
2022-10-28T01:06:00.476Z,2.09
2022-10-28T01:07:03.570Z,1.52
2022-10-28T01:08:06.341Z,1.35
2022-10-28T01:09:09.094Z,1.25
2022-10-28T01:10:12.085Z,1.35
2022-10-28T01:11:15.058Z,1.29
2022-10-28T01:12:18.130Z,1.26
2022-10-28T01:13:21.005Z,1.39
2022-10-28T01:14:23.884Z,1.54
2022-10-28T01:15:26.966Z,1.43
2022-10-28T01:16:29.936Z,1.57
2022-10-28T01:17:33.012Z,1.76
2022-10-28T01:18:36.100Z,0.96
2022-10-28T01:19:39.283Z,1.52
2022-10-28T01:20:44.196Z,1.38
2022-10-28T01:21:46.773Z,1.61
2022-10-28T01:22:49.927Z,1.35
2022-10-28T01:23:53.027Z,1.40
2022-10-28T01:24:56.102Z,1.72
2022-10-28T01:25:59.792Z,1.68
2022-10-28T01:27:02.774Z,1.58
2022-10-28T01:28:05.659Z,1.43
2022-10-28T01:29:08.650Z,1.18
2022-10-28T01:30:11.603Z,1.30
2022-10-28T01:31:14.690Z,1.42
2022-10-28T01:32:17.659Z,1.83
2022-10-28T01:33:20.736Z,1.15
2022-10-28T01:34:24.341Z,1.37
2022-10-28T01:35:27.264Z,1.41
2022-10-28T01:36:30.281Z,1.66
2022-10-28T01:37:33.379Z,1.27
2022-10-28T01:38:36.347Z,1.54
2022-10-28T01:39:39.628Z,2.00
2022-10-28T01:40:42.929Z,1.73
2022-10-28T01:41:46.094Z,2.00
2022-10-28T01:42:49.287Z,1.68
2022-10-28T01:43:52.356Z,1.63
2022-10-28T01:44:55.639Z,1.66
2022-10-28T01:45:58.727Z,1.30
2022-10-28T01:47:01.896Z,1.39
2022-10-28T01:48:04.580Z,1.36
2022-10-28T01:49:07.969Z,1.27
2022-10-28T01:50:10.930Z,1.26
2022-10-28T01:51:14.221Z,1.56
2022-10-28T01:52:17.206Z,1.61
2022-10-28T01:53:20.207Z,2.55
2022-10-28T01:54:22.750Z,1.39
2022-10-28T01:55:25.614Z,1.63
2022-10-28T01:56:28.793Z,1.55
2022-10-28T01:57:32.527Z,2.80
2022-10-28T01:58:35.876Z,1.21
2022-10-28T01:59:39.773Z,1.48
2022-10-28T02:00:43.024Z,1.14
2022-10-28T02:01:46.582Z,1.51
2022-10-28T02:02:50.199Z,1.36
2022-10-28T02:03:53.333Z,1.35
2022-10-28T02:04:56.403Z,1.02
2022-10-28T02:06:00.096Z,1.06
2022-10-28T02:07:03.286Z,1.27
2022-10-28T02:08:06.463Z,1.37
2022-10-28T02:09:09.332Z,1.44
2022-10-28T02:10:12.214Z,1.24
2022-10-28T02:11:15.097Z,1.11
2022-10-28T02:12:18.160Z,1.31
2022-10-28T02:13:21.244Z,1.32
2022-10-28T02:14:24.119Z,1.20
2022-10-28T02:15:27.089Z,1.06
2022-10-28T02:16:30.383Z,1.33
2022-10-28T02:17:33.145Z,1.51
2022-10-28T02:18:36.639Z,1.23
2022-10-28T02:19:39.610Z,1.12
2022-10-28T02:20:42.500Z,1.09
2022-10-28T02:21:45.764Z,1.16
2022-10-28T02:22:48.755Z,1.18
2022-10-28T02:23:51.736Z,1.00
2022-10-28T02:24:55.323Z,1.29
2022-10-28T02:25:58.297Z,1.26
2022-10-28T02:27:01.676Z,0.98
2022-10-28T02:28:05.246Z,1.16
2022-10-28T02:29:08.254Z,1.14
2022-10-28T02:30:10.926Z,1.23
2022-10-28T02:31:13.802Z,1.26
2022-10-28T02:32:16.779Z,1.12
2022-10-28T02:34:36.243Z,1.19
2022-10-28T02:35:39.321Z,1.14
2022-10-28T02:37:59.715Z,1.11
2022-10-28T02:39:03.012Z,1.22
2022-10-28T02:41:21.756Z,1.03
2022-10-28T02:42:24.523Z,1.00
2022-10-28T02:44:43.789Z,1.12
2022-10-28T02:48:21.808Z,1.36
2022-10-28T02:49:25.094Z,1.12
2022-10-28T02:50:28.382Z,1.09
2022-10-28T02:51:31.368Z,1.47
2022-10-28T02:52:34.120Z,1.48
2022-10-28T02:53:37.002Z,1.29
2022-10-28T02:54:40.393Z,1.37
2022-10-28T02:55:43.467Z,1.21
2022-10-28T02:56:46.549Z,1.08
2022-10-28T02:57:49.519Z,1.05
2022-10-28T02:58:52.806Z,1.25
2022-10-28T02:59:56.093Z,1.26
2022-10-28T03:00:59.345Z,1.21
2022-10-28T03:02:02.462Z,1.12
2022-10-28T03:03:05.635Z,1.16
2022-10-28T03:04:08.820Z,1.61
2022-10-28T03:05:12.212Z,1.58
2022-10-28T03:06:15.020Z,1.71
2022-10-28T03:07:17.862Z,1.07
2022-10-28T03:08:20.825Z,0.92
2022-10-28T03:09:24.334Z,0.99
2022-10-28T03:10:30.358Z,1.11
2022-10-28T03:11:33.241Z,1.08
2022-10-28T03:12:36.430Z,1.05
2022-10-28T03:13:39.506Z,1.42
2022-10-28T03:14:42.681Z,1.55
2022-10-28T03:15:45.867Z,1.05
2022-10-28T03:16:48.843Z,1.13
2022-10-28T03:17:52.601Z,1.21
2022-10-28T03:18:55.874Z,0.94
2022-10-28T03:19:58.896Z,0.79
2022-10-28T03:21:02.192Z,0.90
2022-10-28T03:22:05.883Z,1.15
2022-10-28T03:23:09.673Z,1.16
2022-10-28T03:24:12.964Z,1.34
2022-10-28T03:25:16.859Z,1.14
2022-10-28T03:26:20.065Z,1.12
2022-10-28T03:27:23.135Z,1.29
2022-10-28T03:28:26.204Z,1.44
2022-10-28T03:29:28.871Z,1.45
2022-10-28T03:30:31.946Z,1.24
2022-10-28T03:31:34.931Z,0.83
2022-10-28T03:32:37.796Z,1.00
2022-10-28T03:33:40.674Z,1.09
2022-10-28T03:34:43.851Z,1.07
2022-10-28T03:35:46.740Z,1.26
2022-10-28T03:36:49.601Z,1.12
2022-10-28T03:37:52.279Z,1.10
2022-10-28T03:38:55.053Z,0.94
2022-10-28T03:39:57.825Z,1.06
2022-10-28T03:41:00.698Z,1.22
2022-10-28T03:42:03.663Z,1.66
2022-10-28T03:43:06.751Z,1.26
2022-10-28T03:44:09.623Z,1.04
2022-10-28T03:45:12.604Z,1.00
2022-10-28T03:46:15.685Z,1.14
2022-10-28T03:47:18.658Z,1.50
2022-10-28T03:48:21.529Z,1.08
2022-10-28T03:49:24.401Z,0.92
2022-10-28T03:50:27.504Z,1.25
2022-10-28T03:51:30.357Z,1.15
2022-10-28T03:52:33.246Z,1.01
2022-10-28T03:53:36.527Z,0.98
2022-10-28T03:54:39.292Z,1.25
2022-10-28T03:55:42.083Z,1.35
2022-10-28T03:56:45.139Z,1.04
2022-10-28T03:57:48.112Z,1.69
2022-10-28T03:59:54.407Z,1.47
2022-10-28T04:00:57.755Z,0.95
2022-10-28T04:02:00.968Z,0.85
2022-10-28T04:03:03.931Z,0.67
2022-10-28T04:04:06.692Z,0.85
2022-10-28T04:05:09.585Z,1.22
2022-10-28T04:06:12.450Z,0.94
2022-10-28T04:07:15.633Z,0.83
2022-10-28T04:08:19.125Z,0.92
2022-10-28T04:09:22.318Z,1.13
2022-10-28T04:10:25.701Z,1.58
2022-10-28T04:11:28.775Z,0.90
2022-10-28T04:12:32.060Z,1.00
2022-10-28T04:13:35.747Z,1.07
2022-10-28T04:14:38.833Z,1.76
2022-10-28T04:15:42.019Z,0.98
2022-10-28T04:16:45.205Z,0.97
2022-10-28T04:17:48.171Z,1.11
2022-10-28T04:18:51.358Z,1.06
2022-10-28T04:19:54.123Z,1.34
2022-10-28T04:20:57.001Z,0.85
2022-10-28T04:22:00.381Z,1.08
2022-10-28T04:23:04.075Z,1.06
2022-10-28T04:24:07.774Z,1.02
2022-10-28T04:25:10.689Z,1.16
2022-10-28T04:26:13.727Z,1.01
2022-10-28T04:27:16.801Z,0.92
2022-10-28T04:28:19.680Z,1.28
2022-10-28T04:29:27.160Z,1.20
2022-10-28T04:30:30.353Z,1.49
2022-10-28T04:31:33.420Z,0.98
2022-10-28T04:32:36.209Z,1.56
2022-10-28T04:33:39.107Z,0.81
2022-10-28T04:34:42.690Z,1.05
2022-10-28T04:35:45.941Z,0.82
2022-10-28T04:36:49.057Z,0.85
2022-10-28T04:37:52.543Z,0.93
2022-10-28T04:38:55.497Z,0.79
2022-10-28T04:39:58.474Z,1.56
2022-10-28T04:41:01.455Z,1.78
2022-10-28T04:42:04.217Z,0.95
2022-10-28T04:43:09.706Z,1.36
2022-10-28T04:44:11.606Z,1.05
2022-10-28T04:45:14.695Z,1.20
2022-10-28T04:46:17.564Z,1.29
2022-10-28T04:47:20.643Z,1.09
2022-10-28T04:48:23.607Z,1.04
2022-10-28T04:49:26.495Z,0.82
2022-10-28T04:50:29.362Z,1.08
2022-10-28T04:51:32.349Z,1.61
2022-10-28T04:52:35.424Z,0.86
2022-10-28T04:53:38.307Z,1.32
2022-10-28T04:54:41.174Z,1.49
2022-10-28T04:55:44.672Z,1.00
2022-10-28T04:56:47.847Z,0.83
2022-10-28T04:57:51.321Z,1.08
2022-10-28T04:58:54.107Z,0.90
2022-10-28T04:59:57.089Z,0.97
2022-10-28T05:01:00.188Z,1.36
2022-10-28T05:02:03.463Z,0.88
2022-10-28T05:03:06.733Z,1.07
2022-10-28T05:04:09.594Z,0.99
2022-10-28T05:05:12.755Z,0.88
2022-10-28T05:06:15.860Z,0.95
2022-10-28T05:07:21.382Z,0.82
2022-10-28T05:08:23.669Z,0.89
2022-10-28T05:09:26.339Z,0.88
2022-10-28T05:10:29.209Z,0.97
2022-10-28T05:11:32.197Z,0.94
2022-10-28T05:12:35.123Z,1.04
2022-10-28T05:13:38.040Z,0.88
2022-10-28T05:14:41.534Z,0.85
2022-10-28T05:15:45.024Z,1.13
2022-10-28T05:16:48.101Z,1.09
2022-10-28T05:17:51.494Z,0.94
2022-10-28T05:18:54.622Z,1.13
2022-10-28T05:19:57.847Z,1.62
2022-10-28T05:21:00.822Z,0.95
2022-10-28T05:22:04.109Z,0.92
2022-10-28T05:23:07.299Z,0.99
2022-10-28T05:24:10.271Z,0.96
2022-10-28T05:25:13.349Z,0.99
2022-10-28T05:26:16.431Z,0.84
2022-10-28T05:27:19.923Z,0.78
2022-10-28T05:28:23.623Z,1.38
2022-10-28T05:29:32.268Z,0.98
2022-10-28T05:30:31.513Z,0.76
2022-10-28T05:31:34.524Z,1.15
2022-10-28T05:32:37.473Z,1.55
2022-10-28T05:33:40.443Z,1.52
2022-10-28T05:34:43.315Z,1.32
2022-10-28T05:35:49.060Z,1.25
2022-10-28T05:36:52.869Z,1.87
2022-10-28T05:37:56.243Z,0.99
2022-10-28T05:38:59.212Z,1.00
2022-10-28T05:40:02.312Z,0.81
2022-10-28T05:41:05.293Z,1.11
2022-10-28T05:42:08.254Z,1.44
2022-10-28T05:43:12.363Z,1.02
2022-10-28T05:44:15.224Z,1.09
2022-10-28T05:45:18.509Z,1.38
2022-10-28T05:46:21.482Z,1.15
2022-10-28T05:47:24.592Z,1.17
2022-10-28T05:48:27.747Z,1.00
2022-10-28T05:49:31.873Z,0.94
2022-10-28T05:50:35.861Z,0.86
2022-10-28T05:51:39.127Z,1.12
2022-10-28T05:52:42.346Z,1.37
2022-10-28T05:53:46.321Z,0.81
2022-10-28T05:54:49.299Z,0.87
2022-10-28T05:55:53.195Z,0.76
2022-10-28T05:56:56.376Z,0.79
2022-10-28T05:58:00.176Z,0.93
2022-10-28T05:59:03.693Z,0.94
2022-10-28T06:00:06.840Z,1.10
2022-10-28T06:01:10.042Z,1.09
2022-10-28T06:02:13.627Z,0.91
2022-10-28T06:03:16.922Z,1.03
2022-10-28T06:04:19.987Z,0.94
2022-10-28T06:05:23.169Z,1.22
2022-10-28T06:06:28.104Z,0.83
2022-10-28T06:07:32.291Z,0.99
2022-10-28T06:08:35.271Z,0.92
2022-10-28T06:09:38.553Z,0.57
2022-10-28T06:10:41.637Z,0.84
2022-10-28T06:11:42.976Z,0.82
2022-10-28T06:12:46.786Z,0.84
2022-10-28T06:13:49.957Z,0.81
2022-10-28T06:14:53.143Z,0.88
2022-10-28T06:15:55.913Z,0.77
2022-10-28T06:18:22.380Z,0.84
2022-10-28T06:19:25.846Z,0.88
2022-10-28T06:20:29.454Z,0.85
2022-10-28T06:21:32.724Z,0.94
2022-10-28T06:22:36.630Z,0.62
2022-10-28T06:23:39.791Z,1.20
2022-10-28T06:24:42.990Z,0.80
2022-10-28T06:25:46.625Z,0.92
2022-10-28T06:26:49.868Z,0.84
2022-10-28T06:27:55.594Z,1.05
2022-10-28T06:28:59.241Z,0.86
2022-10-28T06:30:08.726Z,0.89
2022-10-28T06:31:12.023Z,0.91
2022-10-28T06:32:15.404Z,0.77
2022-10-28T06:33:19.497Z,0.90
2022-10-28T06:34:22.991Z,0.99
2022-10-28T06:35:26.501Z,1.46
2022-10-28T06:36:29.302Z,0.81
2022-10-28T06:37:33.042Z,0.85
2022-10-28T06:38:36.519Z,0.90
2022-10-28T06:39:40.003Z,0.86
2022-10-28T06:40:43.158Z,0.66
2022-10-28T06:41:49.977Z,0.77
2022-10-28T06:42:53.316Z,0.72
2022-10-28T06:43:56.654Z,0.82
2022-10-28T06:44:59.630Z,0.97
2022-10-28T06:46:05.079Z,0.85
2022-10-28T06:47:09.775Z,0.98
2022-10-28T06:48:12.705Z,0.92
2022-10-28T06:49:15.410Z,0.83
2022-10-28T06:50:18.305Z,1.03
2022-10-28T06:51:21.262Z,0.95
2022-10-28T06:52:24.460Z,0.86
2022-10-28T06:53:27.530Z,0.82
2022-10-28T06:54:30.725Z,0.85
2022-10-28T06:55:33.917Z,0.67
2022-10-28T06:56:36.563Z,0.83
2022-10-28T06:57:40.376Z,0.85
2022-10-28T06:58:43.641Z,0.88
2022-10-28T06:59:46.325Z,0.82
2022-10-28T07:00:49.341Z,0.80
2022-10-28T07:01:52.236Z,0.78
2022-10-28T07:02:56.120Z,0.80
2022-10-28T07:03:59.248Z,0.98
2022-10-28T07:05:02.334Z,1.09
2022-10-28T07:06:05.196Z,0.92
2022-10-28T07:07:07.977Z,0.94
2022-10-28T07:08:11.977Z,0.80
2022-10-28T07:09:15.299Z,1.25
2022-10-28T07:10:18.252Z,1.09
2022-10-28T07:11:23.885Z,0.80
2022-10-28T07:12:26.662Z,1.02
2022-10-28T07:13:29.963Z,0.87
2022-10-28T07:14:32.616Z,0.82
2022-10-28T07:15:35.387Z,0.82
2022-10-28T07:16:38.274Z,0.89
2022-10-28T07:17:48.049Z,1.12
2022-10-28T07:18:50.978Z,0.93
2022-10-28T07:19:54.276Z,0.92
2022-10-28T07:20:57.540Z,0.93
2022-10-28T07:22:00.933Z,0.84
2022-10-28T07:23:04.406Z,0.87
2022-10-28T07:24:07.912Z,0.89
2022-10-28T07:25:11.711Z,1.11
2022-10-28T07:26:15.108Z,0.95
2022-10-28T07:27:17.974Z,1.08
2022-10-28T07:28:20.843Z,0.94
2022-10-28T07:29:24.647Z,0.92
2022-10-28T07:30:38.537Z,0.74
2022-10-28T07:31:41.772Z,0.79
2022-10-28T07:32:44.955Z,0.81
2022-10-28T07:33:48.024Z,0.98
2022-10-28T07:34:51.106Z,0.98
2022-10-28T07:35:54.003Z,1.08
2022-10-28T07:36:59.530Z,1.12
2022-10-28T07:38:02.910Z,1.02
2022-10-28T07:39:06.546Z,0.86
2022-10-28T07:40:10.107Z,0.76
2022-10-28T07:41:13.793Z,0.76
2022-10-28T07:42:17.074Z,0.77
2022-10-28T07:43:20.465Z,0.84
2022-10-28T07:44:23.428Z,0.66
2022-10-28T07:45:29.066Z,0.66
2022-10-28T07:46:32.664Z,0.98
2022-10-28T07:47:36.781Z,0.77
2022-10-28T07:48:40.057Z,0.95
2022-10-28T07:49:44.252Z,0.99
2022-10-28T07:50:48.678Z,1.04
2022-10-28T07:51:54.313Z,1.25
2022-10-28T07:52:58.402Z,0.95
2022-10-28T07:54:01.282Z,1.14
2022-10-28T07:55:04.678Z,1.35
2022-10-28T07:56:08.302Z,1.34
2022-10-28T07:57:11.646Z,1.28
2022-10-28T07:58:14.524Z,1.20
2022-10-28T07:59:17.553Z,1.05
2022-10-28T08:00:20.670Z,1.15
2022-10-28T08:01:23.469Z,1.05
2022-10-28T08:02:26.437Z,1.17
2022-10-28T08:03:38.035Z,0.92
2022-10-28T08:04:34.426Z,1.02
2022-10-28T08:05:37.712Z,0.90
2022-10-28T08:06:40.925Z,0.82
2022-10-28T08:07:44.468Z,0.76
2022-10-28T08:08:47.765Z,0.78
2022-10-28T08:09:51.035Z,0.80
2022-10-28T08:10:54.949Z,0.80
2022-10-28T08:11:59.462Z,0.91
2022-10-28T08:13:02.806Z,0.87
2022-10-28T08:14:06.617Z,0.90
2022-10-28T08:15:10.357Z,0.85
2022-10-28T08:16:15.966Z,0.78
2022-10-28T08:17:19.366Z,0.86
2022-10-28T08:18:22.413Z,0.73
2022-10-28T08:19:25.390Z,0.82
2022-10-28T08:20:28.162Z,1.00
2022-10-28T08:21:31.061Z,0.95
2022-10-28T08:22:34.422Z,0.88
2022-10-28T08:23:38.948Z,0.91
2022-10-28T08:24:43.533Z,1.18
2022-10-28T08:25:47.036Z,1.06
2022-10-28T08:26:51.061Z,1.16
2022-10-28T08:27:54.420Z,0.94
2022-10-28T08:28:57.810Z,0.94
2022-10-28T08:30:01.192Z,0.92
2022-10-28T08:31:08.581Z,1.12
2022-10-28T08:32:09.661Z,1.04
2022-10-28T08:33:13.661Z,0.92
2022-10-28T08:34:16.900Z,0.76
2022-10-28T08:35:20.185Z,0.75
2022-10-28T08:36:24.497Z,0.75
2022-10-28T08:37:27.400Z,0.79
2022-10-28T08:38:30.738Z,0.73
2022-10-28T08:39:34.038Z,0.78
2022-10-28T08:40:38.038Z,0.93
2022-10-28T08:41:41.426Z,0.78
2022-10-28T08:42:44.515Z,0.74
2022-10-28T08:43:57.121Z,0.82
2022-10-28T08:44:52.921Z,1.00
2022-10-28T08:45:55.926Z,1.10
2022-10-28T08:46:59.682Z,1.01
2022-10-28T08:48:03.292Z,0.92
2022-10-28T08:49:07.666Z,0.99
2022-10-28T08:50:11.362Z,1.02
2022-10-28T08:51:15.364Z,1.08
2022-10-28T08:52:19.675Z,1.06
2022-10-28T08:53:23.285Z,0.96
2022-10-28T08:54:27.378Z,0.90
2022-10-28T08:55:31.070Z,0.88
2022-10-28T08:56:34.862Z,0.82
2022-10-28T08:57:38.463Z,0.90
2022-10-28T08:58:42.163Z,1.06
2022-10-28T08:59:53.213Z,1.02
2022-10-28T09:00:58.165Z,0.96
2022-10-28T09:02:01.521Z,0.92
2022-10-28T09:03:05.207Z,0.94
2022-10-28T09:04:08.916Z,1.14
2022-10-28T09:05:14.347Z,1.04
2022-10-28T09:06:17.839Z,1.11
2022-10-28T09:07:21.059Z,1.19
2022-10-28T09:08:26.569Z,1.07
2022-10-28T09:09:30.667Z,0.81
2022-10-28T09:10:35.270Z,1.00
2022-10-28T09:11:39.277Z,1.06
2022-10-28T09:12:46.375Z,1.00
2022-10-28T09:13:53.109Z,1.08
2022-10-28T09:14:56.599Z,0.92
2022-10-28T09:16:00.818Z,0.84
2022-10-28T09:17:04.503Z,0.89
2022-10-28T09:18:08.292Z,0.89
2022-10-28T09:19:11.880Z,0.81
2022-10-28T09:20:17.528Z,0.72
2022-10-28T09:21:21.225Z,0.79
2022-10-28T09:22:26.050Z,0.80
2022-10-28T09:23:30.052Z,0.68
2022-10-28T09:24:34.363Z,0.82
2022-10-28T09:25:38.353Z,0.70
2022-10-28T09:26:42.658Z,0.64
2022-10-28T09:27:46.978Z,0.70
2022-10-28T09:28:50.470Z,0.67
2022-10-28T09:29:53.847Z,0.77
2022-10-28T09:30:57.119Z,0.80
2022-10-28T09:32:02.376Z,0.76
2022-10-28T09:33:06.152Z,0.93
2022-10-28T09:34:10.258Z,0.99
2022-10-28T09:35:14.051Z,0.89
2022-10-28T09:36:17.474Z,0.81
2022-10-28T09:37:22.262Z,0.80
2022-10-28T09:38:25.410Z,0.74
2022-10-28T09:39:29.249Z,0.67
2022-10-28T09:40:32.550Z,0.76
2022-10-28T09:41:40.115Z,0.68
2022-10-28T09:42:44.240Z,0.76
2022-10-28T09:43:47.496Z,0.84
2022-10-28T09:44:51.284Z,1.05
2022-10-28T09:45:54.994Z,0.90
2022-10-28T09:46:58.826Z,1.00
2022-10-28T09:48:17.946Z,0.98
2022-10-28T09:49:21.640Z,0.96
2022-10-28T09:50:32.634Z,0.92
2022-10-28T09:51:37.614Z,1.06
2022-10-28T09:52:41.085Z,1.20
2022-10-28T09:55:08.775Z,1.01
2022-10-28T09:56:12.924Z,0.95
2022-10-28T09:57:17.506Z,1.01
2022-10-28T09:58:24.562Z,1.16
2022-10-28T09:59:28.480Z,0.94
2022-10-28T10:00:32.063Z,0.84
2022-10-28T10:01:36.493Z,0.84
2022-10-28T10:02:40.029Z,1.06
2022-10-28T10:03:44.586Z,1.15
2022-10-28T10:04:48.278Z,0.85
2022-10-28T10:05:51.353Z,0.95
2022-10-28T10:06:54.422Z,0.92
2022-10-28T10:08:00.780Z,1.05
2022-10-28T10:10:24.455Z,0.93
2022-10-28T10:11:27.744Z,0.91
2022-10-28T10:12:32.966Z,1.07
2022-10-28T10:13:36.979Z,0.95
2022-10-28T10:14:40.249Z,0.97
2022-10-28T10:15:43.954Z,0.76
2022-10-28T10:16:47.529Z,0.79
2022-10-28T10:17:56.253Z,0.66
2022-10-28T10:19:02.723Z,0.89
2022-10-28T10:20:05.778Z,0.96
2022-10-28T10:21:10.192Z,1.00
2022-10-28T10:22:15.621Z,0.91
2022-10-28T10:24:39.710Z,0.80
2022-10-28T10:25:43.712Z,0.87
2022-10-28T10:26:47.108Z,0.87
2022-10-28T10:27:59.901Z,0.68
2022-10-28T10:30:24.252Z,0.99
2022-10-28T10:31:29.624Z,1.06
2022-10-28T10:32:33.513Z,0.82
2022-10-28T10:33:37.414Z,0.88
2022-10-28T10:34:43.678Z,0.90
2022-10-28T10:35:47.265Z,0.86
2022-10-28T10:38:17.017Z,0.89
2022-10-28T10:39:20.478Z,0.83
2022-10-28T10:40:24.667Z,0.80
2022-10-28T10:41:28.070Z,0.84
2022-10-28T10:42:32.065Z,0.89
2022-10-28T10:43:38.100Z,0.74
2022-10-28T10:44:41.902Z,0.90
2022-10-28T10:45:45.590Z,0.69
2022-10-28T10:46:49.393Z,0.84
2022-10-28T10:47:53.208Z,0.74
2022-10-28T10:48:56.889Z,0.71
2022-10-28T10:50:00.482Z,0.72
2022-10-28T10:51:03.859Z,0.86
2022-10-28T10:52:08.783Z,0.76
2022-10-28T10:53:12.798Z,0.69
2022-10-28T10:54:16.088Z,0.97
2022-10-28T10:55:20.580Z,0.76
2022-10-28T10:56:24.370Z,0.63
2022-10-28T10:57:28.387Z,0.69
2022-10-28T10:58:32.189Z,0.72
2022-10-28T10:59:36.181Z,0.78
2022-10-28T11:00:39.567Z,0.84
2022-10-28T11:01:43.567Z,0.71
2022-10-28T11:02:49.017Z,0.70
2022-10-28T11:03:51.962Z,0.65
2022-10-28T11:04:56.303Z,0.69
2022-10-28T11:07:07.973Z,0.74
2022-10-28T11:08:11.683Z,0.82
2022-10-28T11:09:15.259Z,0.62
2022-10-28T11:10:18.863Z,0.70
2022-10-28T11:11:21.960Z,0.64
2022-10-28T11:12:26.030Z,0.84
2022-10-28T11:13:31.165Z,0.77
2022-10-28T11:14:34.867Z,0.80
2022-10-28T11:15:38.438Z,0.92
2022-10-28T11:18:02.473Z,0.70
2022-10-28T11:19:06.942Z,0.70
2022-10-28T11:20:13.465Z,0.73
2022-10-28T11:21:16.812Z,0.84
2022-10-28T11:22:22.832Z,0.85
2022-10-28T11:23:26.633Z,0.98
2022-10-28T11:24:33.918Z,0.81
2022-10-28T11:25:37.708Z,0.61
2022-10-28T11:26:41.904Z,0.78
2022-10-28T11:29:09.992Z,0.74
2022-10-28T11:33:30.137Z,0.72
2022-10-28T11:35:51.505Z,0.83
2022-10-28T11:36:55.189Z,0.87
2022-10-28T11:37:58.580Z,0.79
2022-10-28T11:39:02.731Z,0.74
2022-10-28T11:40:14.738Z,0.74
2022-10-28T11:41:22.153Z,0.97
2022-10-28T11:42:25.552Z,0.90
2022-10-28T11:43:47.727Z,0.83
2022-10-28T11:44:54.745Z,0.74
2022-10-28T11:46:10.014Z,0.78
2022-10-28T11:53:04.520Z,0.74
2022-10-28T11:54:07.916Z,0.64
2022-10-28T11:55:22.705Z,0.64
2022-10-28T11:56:31.780Z,0.67
2022-10-28T11:57:35.584Z,0.79
2022-10-28T11:58:41.860Z,0.79
2022-10-28T11:59:45.952Z,0.70
2022-10-28T12:02:21.656Z,0.78
2022-10-28T12:03:34.507Z,0.66
2022-10-28T12:04:38.497Z,0.73
2022-10-28T12:05:42.822Z,0.73
2022-10-28T12:07:03.915Z,0.67
2022-10-28T12:08:11.803Z,0.80
2022-10-28T12:09:14.743Z,0.88
2022-10-28T12:10:18.679Z,0.98
2022-10-28T12:11:23.591Z,0.95
2022-10-28T12:12:29.601Z,1.28
2022-10-28T12:13:43.069Z,1.40
2022-10-28T12:14:47.385Z,1.53
2022-10-28T12:15:50.999Z,1.87
2022-10-28T12:16:54.563Z,2.10
2022-10-28T12:18:06.298Z,1.70
2022-10-28T12:20:31.169Z,2.78
2022-10-28T12:22:39.117Z,2.53
2022-10-28T12:23:45.836Z,2.40
2022-10-28T12:24:49.372Z,2.03
2022-10-28T12:25:52.987Z,2.02
2022-10-28T12:27:02.324Z,1.49
2022-10-28T12:28:07.411Z,1.38
2022-10-28T12:29:10.827Z,1.39
2022-10-28T12:30:14.247Z,1.62
2022-10-28T12:31:17.063Z,1.21
2022-10-28T12:32:21.297Z,1.20
2022-10-28T12:33:25.512Z,1.37
2022-10-28T12:34:29.261Z,2.14
2022-10-28T12:35:32.690Z,2.56
2022-10-28T12:36:35.668Z,1.70
2022-10-28T12:37:39.630Z,0.76
2022-10-28T12:38:43.781Z,1.00
2022-10-28T12:39:47.256Z,1.86
2022-10-28T12:40:50.965Z,2.46
2022-10-28T12:41:54.140Z,2.21
2022-10-28T12:42:58.855Z,2.15
2022-10-28T12:44:03.467Z,2.41
2022-10-28T12:46:27.362Z,1.15
2022-10-28T12:47:30.856Z,1.25
2022-10-28T12:48:38.728Z,0.68
2022-10-28T12:49:41.601Z,0.80
2022-10-28T12:50:44.985Z,0.79
2022-10-28T12:51:48.667Z,0.81
2022-10-28T12:52:52.670Z,0.86
2022-10-28T12:53:56.669Z,0.81
2022-10-28T12:56:20.852Z,0.93
2022-10-28T12:57:24.755Z,0.96
2022-10-28T12:58:27.737Z,0.89
2022-10-28T12:59:31.429Z,0.80
2022-10-28T13:00:35.029Z,0.99
2022-10-28T13:01:38.247Z,0.69
2022-10-28T13:02:41.998Z,0.75
2022-10-28T13:03:44.959Z,0.75
2022-10-28T13:04:50.455Z,0.79
2022-10-28T13:05:53.792Z,0.61
2022-10-28T13:06:57.198Z,0.80
2022-10-28T13:08:01.310Z,0.66
2022-10-28T13:09:04.877Z,0.77
2022-10-28T13:10:08.744Z,0.72
2022-10-28T13:11:12.567Z,0.78
2022-10-28T13:12:16.255Z,1.03
2022-10-28T13:13:25.146Z,0.76
2022-10-28T13:14:28.465Z,0.71
2022-10-28T13:15:32.362Z,0.76
2022-10-28T13:16:36.162Z,0.74
2022-10-28T13:17:40.475Z,0.94
2022-10-28T13:18:43.952Z,0.96
2022-10-28T13:20:03.534Z,0.95
2022-10-28T13:21:07.250Z,0.87
2022-10-28T13:22:11.828Z,1.04
2022-10-28T13:23:15.930Z,0.73
2022-10-28T13:24:24.871Z,0.80
2022-10-28T13:25:28.145Z,0.88
2022-10-28T13:26:31.521Z,0.91
2022-10-28T13:28:39.948Z,0.79
2022-10-28T13:29:43.543Z,0.81
2022-10-28T13:30:47.222Z,0.88
2022-10-28T13:31:51.114Z,0.82
2022-10-28T13:32:54.909Z,0.88
2022-10-28T13:33:58.311Z,1.02
2022-10-28T13:35:01.515Z,0.80
2022-10-28T13:36:05.274Z,0.73
2022-10-28T13:37:09.717Z,0.77
2022-10-28T13:38:13.174Z,0.79
2022-10-28T13:39:16.963Z,0.86
2022-10-28T13:40:19.716Z,0.88
2022-10-28T13:41:22.826Z,0.98
2022-10-28T13:42:26.626Z,0.75
2022-10-28T13:43:29.180Z,0.86
2022-10-28T13:44:33.087Z,0.72
2022-10-28T13:46:57.059Z,0.89
2022-10-28T13:48:00.558Z,0.78
2022-10-28T13:49:05.519Z,0.82
2022-10-28T13:50:09.255Z,0.91
2022-10-28T13:51:12.973Z,0.81
2022-10-28T13:52:17.398Z,0.73
2022-10-28T13:53:21.377Z,0.61
2022-10-28T13:54:24.775Z,0.67
2022-10-28T13:55:27.982Z,0.69
2022-10-28T13:56:31.235Z,0.78
2022-10-28T13:57:35.339Z,0.74
2022-10-28T13:58:38.719Z,0.98
2022-10-28T13:59:42.815Z,0.85
2022-10-28T14:00:49.112Z,0.86
2022-10-28T14:02:01.932Z,0.83
2022-10-28T14:02:56.882Z,1.00
2022-10-28T14:04:11.325Z,0.82
2022-10-28T14:05:14.818Z,0.85
2022-10-28T14:06:18.555Z,0.97
2022-10-28T14:07:22.409Z,0.81
2022-10-28T14:08:25.992Z,0.90
2022-10-28T14:09:29.592Z,0.73
2022-10-28T14:10:32.862Z,0.78
2022-10-28T14:11:36.151Z,0.70
2022-10-28T14:12:40.178Z,0.63
2022-10-28T14:13:44.905Z,0.69
2022-10-28T14:14:48.674Z,0.75
2022-10-28T14:15:52.897Z,0.81
2022-10-28T14:16:56.568Z,0.80
2022-10-28T14:18:09.959Z,0.80
2022-10-28T14:20:25.152Z,0.68
2022-10-28T14:21:28.445Z,0.64
2022-10-28T14:22:32.724Z,0.67
2022-10-28T14:23:38.809Z,0.71
2022-10-28T14:24:42.597Z,0.84
2022-10-28T14:25:46.607Z,0.83
2022-10-28T14:26:50.393Z,0.62
2022-10-28T14:27:54.066Z,0.79
2022-10-28T14:28:57.714Z,0.85
2022-10-28T14:30:01.262Z,0.75
2022-10-28T14:31:04.767Z,0.71
2022-10-28T14:32:08.346Z,0.70
2022-10-28T14:33:14.588Z,0.66
2022-10-28T14:34:18.606Z,0.79
2022-10-28T14:35:22.098Z,1.02
2022-10-28T14:36:25.396Z,0.60
2022-10-28T14:37:28.696Z,0.72
2022-10-28T14:38:31.848Z,0.59
2022-10-28T14:39:35.459Z,0.95
2022-10-28T14:40:40.889Z,0.70
2022-10-28T14:41:44.736Z,0.92
2022-10-28T14:42:48.559Z,1.04
2022-10-28T14:43:52.257Z,0.67
2022-10-28T14:44:56.981Z,0.75
2022-10-28T14:46:00.466Z,0.74
2022-10-28T14:47:03.960Z,0.79
2022-10-28T14:48:07.146Z,0.68
2022-10-28T14:49:13.999Z,0.76
2022-10-28T14:50:19.267Z,0.82
2022-10-28T14:51:25.885Z,0.82